Time;durP1;ratioP1;P1;durP2;ratioP2;P2;SDS_P1;SDS_P2;PMS_P1;PMS_P2;Temp;Humidity;BMP_temperature;BMP_pressure;BME280_temperature;BME280_humidity;BME280_pressure;Samples;Min_cycle;Max_cycle;Signal;HPM_P1;HPM_P2
2022/04/02 00:02:23;;;;;;;3.92;1.95;;;;;;;10.90;62.66;93494.88;5024017;28;20033;-61
2022/04/02 00:04:48;;;;;;;5.22;1.98;;;;;;;10.76;62.03;93466.94;5024813;28;20107;-61
2022/04/02 00:07:14;;;;;;;4.65;1.60;;;;;;;11.07;59.25;93502.88;5024652;28;20059;-63
2022/04/02 00:09:40;;;;;;;5.10;1.70;;;;;;;11.10;60.20;93503.44;5023320;28;20026;-59
2022/04/02 00:12:07;;;;;;;1.63;1.08;;;;;;;11.16;57.70;93497.72;5024717;28;20517;-61
2022/04/02 00:14:32;;;;;;;2.20;1.10;;;;;;;11.06;56.17;93475.47;5024107;28;20061;-64
2022/04/02 00:16:58;;;;;;;2.75;2.00;;;;;;;11.19;55.78;93476.78;5024591;28;20282;-63
2022/04/02 00:19:23;;;;;;;2.53;1.55;;;;;;;11.17;55.80;93491.59;5024611;28;20476;-60
2022/04/02 00:21:49;;;;;;;1.63;0.90;;;;;;;11.24;55.06;93502.19;5024350;28;20044;-64
2022/04/02 00:24:14;;;;;;;0.68;0.68;;;;;;;10.99;53.54;93485.53;5024418;28;20034;-61
2022/04/02 00:26:40;;;;;;;2.20;0.95;;;;;;;10.92;53.80;93456.88;5023645;28;20544;-61
2022/04/02 00:29:11;;;;;;;2.53;1.00;;;;;;;11.19;55.06;93517.28;5024011;28;20108;-61
2022/04/02 00:31:37;;;;;;;2.38;1.17;;;;;;;11.12;52.97;93495.56;5024197;28;20440;-59
2022/04/02 00:34:02;;;;;;;1.73;1.20;;;;;;;11.16;54.83;93505.44;5024474;28;20117;-62
2022/04/02 00:36:28;;;;;;;2.42;1.45;;;;;;;11.13;56.26;93523.78;5024147;28;20034;-61
2022/04/02 00:38:53;;;;;;;3.80;1.48;;;;;;;11.17;53.62;93534.66;5023844;28;20026;-64
2022/04/02 00:41:19;;;;;;;3.55;1.27;;;;;;;10.90;53.93;93502.59;5022487;28;20045;-61
2022/04/02 00:43:56;;;;;;;2.45;1.20;;;;;;;11.19;54.48;93545.66;5023840;28;20034;-63
2022/04/02 00:46:22;;;;;;;2.83;0.90;;;;;;;11.21;53.48;93547.16;5023661;28;20058;-67
2022/04/02 00:48:49;;;;;;;1.67;0.60;;;;;;;11.21;53.18;93536.84;5010227;28;20440;-60
2022/04/02 00:51:17;;;;;;;1.05;0.70;;;;;;;11.18;52.43;93544.84;5010474;28;20539;-61
2022/04/02 00:53:46;;;;;;;1.88;1.38;;;;;;;11.17;53.94;93534.66;5010832;28;20456;-62
2022/04/02 00:56:13;;;;;;;2.75;0.95;;;;;;;11.07;53.61;93524.34;5010510;28;20030;-60
2022/04/02 00:58:39;;;;;;;2.08;1.00;;;;;;;11.10;54.92;93538.72;5010755;28;20037;-64
2022/04/02 01:01:05;;;;;;;1.30;1.20;;;;;;;11.07;53.79;93529.50;5010227;28;20061;-61
2022/04/02 01:03:31;;;;;;;1.67;0.77;;;;;;;10.75;54.21;93480.78;5010254;28;20026;-64
2022/04/02 01:05:57;;;;;;;1.17;0.90;;;;;;;10.99;54.56;93529.38;5010042;28;20041;-62
2022/04/02 01:08:22;;;;;;;1.48;0.88;;;;;;;10.90;56.26;93540.50;5010608;28;20022;-67
2022/04/02 01:10:49;;;;;;;3.55;1.20;;;;;;;10.97;55.86;93552.72;5010354;28;20499;-60
2022/04/02 01:13:16;;;;;;;1.52;1.42;;;;;;;10.85;54.18;93517.69;5009873;28;20025;-63
2022/04/02 01:15:41;;;;;;;1.48;0.95;;;;;;;10.91;53.42;93519.72;5009988;28;20030;-61
2022/04/02 01:18:07;;;;;;;1.52;1.08;;;;;;;11.13;52.30;93549.56;5010046;28;20032;-65
2022/04/02 01:20:33;;;;;;;0.70;0.52;;;;;;;11.00;51.96;93529.25;5010104;28;20465;-63
2022/04/02 01:22:59;;;;;;;2.33;1.08;;;;;;;10.99;53.96;93539.69;5010146;28;20461;-60
2022/04/02 01:25:31;;;;;;;3.50;1.27;;;;;;;10.51;53.63;93463.09;5009911;28;20065;-61
2022/04/02 01:28:01;;;;;;;3.22;2.08;;;;;;;11.10;54.83;93560.19;5010138;28;20096;-62
2022/04/02 01:30:27;;;;;;;3.13;1.55;;;;;;;11.01;55.98;93566.16;5010066;28;20053;-62
2022/04/02 01:32:53;;;;;;;1.88;0.90;;;;;;;10.71;56.80;93538.69;5009875;28;20040;-60
2022/04/02 01:35:22;;;;;;;2.00;1.02;;;;;;;10.58;57.41;93524.31;5009660;28;20038;-60
2022/04/02 01:37:51;;;;;;;3.83;1.40;;;;;;;10.80;55.74;93561.91;5009164;28;20038;-61
2022/04/02 01:40:18;;;;;;;2.05;0.90;;;;;;;10.01;57.46;93459.59;5009793;28;20088;-62
2022/04/02 01:42:44;;;;;;;1.42;1.05;;;;;;;10.62;57.99;93571.25;5009658;28;20022;-61
2022/04/02 01:45:10;;;;;;;2.10;0.80;;;;;;;10.58;57.53;93569.91;5009344;28;20088;-60
2022/04/02 01:47:36;;;;;;;2.05;1.17;;;;;;;10.08;58.37;93524.28;5009500;28;20156;-61
2022/04/02 01:50:02;;;;;;;2.15;0.90;;;;;;;10.14;58.68;93543.56;5009132;28;20022;-61
2022/04/02 01:52:27;;;;;;;4.25;0.80;;;;;;;10.24;59.21;93577.88;5009309;28;20096;-61
2022/04/02 01:54:53;;;;;;;1.75;1.20;;;;;;;9.97;58.49;93544.97;5009372;28;20100;-63
2022/04/02 01:57:19;;;;;;;1.85;0.82;;;;;;;10.02;57.36;93529.94;5009202;28;20115;-60
2022/04/02 01:59:47;;;;;;;4.00;1.45;;;;;;;10.41;57.38;93582.47;5008270;28;20064;-60
2022/04/02 02:02:13;;;;;;;0.65;0.60;;;;;;;10.19;58.27;93583.41;5008987;28;20193;-61
2022/04/02 02:04:39;;;;;;;2.70;1.10;;;;;;;10.17;59.47;93584.50;5009328;28;20044;-60
2022/04/02 02:07:06;;;;;;;1.45;1.10;;;;;;;10.10;58.95;93579.88;5009058;28;20113;-61
2022/04/02 02:09:33;;;;;;;3.92;1.20;;;;;;;9.79;58.94;93527.56;5009224;28;20085;-62
2022/04/02 02:11:58;;;;;;;2.85;1.10;;;;;;;10.06;58.70;93560.44;5009228;28;20038;-61
2022/04/02 02:14:24;;;;;;;1.42;0.90;;;;;;;9.69;59.05;93518.94;5007313;28;20125;-62
2022/04/02 02:16:50;;;;;;;3.70;1.33;;;;;;;10.02;59.72;93582.28;5008778;28;20034;-64
2022/04/02 02:19:16;;;;;;;2.50;1.40;;;;;;;9.54;60.26;93510.75;5008932;28;20518;-61
2022/04/02 02:21:41;;;;;;;2.22;1.20;;;;;;;10.01;60.31;93578.06;5007521;28;20025;-63
2022/04/02 02:24:08;;;;;;;2.33;1.02;;;;;;;9.94;59.44;93576.94;5008929;28;20034;-66
2022/04/02 02:26:34;;;;;;;2.45;1.00;;;;;;;10.01;58.59;93567.75;5008586;28;20497;-65
2022/04/02 02:29:00;;;;;;;1.88;0.95;;;;;;;9.37;58.89;93465.84;5008862;28;20481;-62
2022/04/02 02:31:26;;;;;;;3.72;1.88;;;;;;;9.92;58.83;93569.34;5008766;28;20026;-61
2022/04/02 02:36:35;;;;;;;2.15;1.08;;;;;;;10.02;58.80;93584.84;5008371;28;20096;-62
2022/04/02 02:39:00;;;;;;;2.13;0.90;;;;;;;9.86;59.30;93561.31;5007355;28;20022;-60
2022/04/02 02:41:26;;;;;;;3.30;1.60;;;;;;;9.96;58.00;93580.19;5008646;28;20660;-61
2022/04/02 02:43:52;;;;;;;2.63;1.40;;;;;;;9.84;59.12;93565.75;5008691;28;20045;-62
2022/04/02 02:46:18;;;;;;;3.17;1.63;;;;;;;9.88;58.74;93562.81;5008214;28;20046;-64
2022/04/02 02:48:45;;;;;;;2.35;0.93;;;;;;;9.90;58.25;93565.25;5008118;28;20029;-59
2022/04/02 02:51:11;;;;;;;2.25;1.30;;;;;;;9.88;59.55;93564.56;5008369;28;20026;-66
2022/04/02 02:53:36;;;;;;;2.80;1.30;;;;;;;9.46;59.17;93501.13;5008518;28;20168;-62
2022/04/02 02:56:02;;;;;;;0.77;0.77;;;;;;;9.78;58.07;93549.09;5008763;28;20409;-63
2022/04/02 02:58:27;;;;;;;4.18;1.13;;;;;;;10.04;55.45;93551.25;5008633;28;20014;-66
2022/04/02 03:00:53;;;;;;;1.83;1.15;;;;;;;10.30;55.14;93555.00;5007991;28;20040;-61
2022/04/02 03:03:18;;;;;;;1.50;0.93;;;;;;;10.14;56.32;93546.13;5008384;28;20463;-61
2022/04/02 03:05:44;;;;;;;1.88;0.82;;;;;;;10.05;54.73;93534.81;5008015;28;20091;-60
2022/04/02 03:08:09;;;;;;;1.80;0.93;;;;;;;9.95;53.79;93509.03;5008574;28;20500;-64
2022/04/02 03:10:36;;;;;;;4.18;1.50;;;;;;;10.30;55.74;93573.03;5008037;28;20029;-61
2022/04/02 03:13:02;;;;;;;1.40;1.08;;;;;;;10.19;54.89;93551.69;5007823;28;20113;-65
2022/04/02 03:15:27;;;;;;;2.22;1.40;;;;;;;10.09;56.05;93575.66;5008024;28;20081;-60
2022/04/02 03:18:00;;;;;;;3.10;1.50;;;;;;;9.99;57.24;93568.84;5007123;28;20231;-61
2022/04/02 03:20:26;;;;;;;2.47;1.38;;;;;;;9.83;58.03;93559.81;5008376;28;20163;-62
2022/04/02 03:22:51;;;;;;;3.28;1.95;;;;;;;9.92;58.93;93597.69;5008423;28;20021;-61
2022/04/02 03:25:23;;;;;;;3.22;1.80;;;;;;;9.86;57.40;93599.94;5007713;28;20025;-61
2022/04/02 03:27:49;;;;;;;3.42;1.38;;;;;;;9.20;58.72;93516.13;5008067;28;20586;-61
2022/04/02 03:30:21;;;;;;;2.30;1.30;;;;;;;9.47;58.93;93574.78;5008084;28;20488;-63
2022/04/02 03:32:47;;;;;;;1.92;1.20;;;;;;;9.62;58.87;93600.19;5008170;28;20552;-62
2022/04/02 03:35:14;;;;;;;1.85;1.13;;;;;;;9.31;59.16;93540.94;5008014;28;20493;-63
2022/04/02 03:37:44;;;;;;;1.90;1.17;;;;;;;10.00;56.53;93607.34;5007594;28;20109;-61
2022/04/02 03:40:14;;;;;;;4.68;1.67;;;;;;;9.94;56.30;93570.03;5007988;28;20109;-66
2022/04/02 03:42:41;;;;;;;1.08;0.70;;;;;;;10.26;53.35;93602.59;5008137;28;20064;-63
2022/04/02 03:45:08;;;;;;;1.73;1.15;;;;;;;10.17;53.08;93562.13;5008051;28;20041;-61
2022/04/02 03:47:34;;;;;;;1.45;1.10;;;;;;;10.04;53.79;93541.75;5007667;28;20050;-62
2022/04/02 03:49:59;;;;;;;4.97;1.65;;;;;;;10.33;54.02;93596.94;5007712;28;20509;-63
2022/04/02 03:52:25;;;;;;;1.80;1.17;;;;;;;10.32;52.98;93588.38;5008062;28;20022;-62
2022/04/02 03:54:51;;;;;;;2.00;1.10;;;;;;;10.25;53.54;93567.44;5007910;28;20037;-64
2022/04/02 03:57:17;;;;;;;1.98;1.35;;;;;;;10.34;53.60;93591.66;5008038;28;20030;-64
2022/04/02 03:59:44;;;;;;;1.92;1.10;;;;;;;10.28;54.54;93579.25;5008081;28;20412;-64
2022/04/02 04:02:10;;;;;;;1.10;0.98;;;;;;;10.58;50.89;93582.78;5007690;28;20037;-63
2022/04/02 04:04:37;;;;;;;1.75;1.13;;;;;;;10.46;51.52;93569.16;5008055;28;20030;-65
2022/04/02 04:07:04;;;;;;;1.50;0.88;;;;;;;10.18;52.05;93552.63;5007767;28;20104;-66
2022/04/02 04:09:30;;;;;;;2.15;1.00;;;;;;;10.38;51.48;93605.06;5008054;28;20030;-62
2022/04/02 04:11:55;;;;;;;0.77;0.75;;;;;;;10.65;49.91;93623.34;5007957;28;20095;-63
2022/04/02 04:14:22;;;;;;;0.80;0.80;;;;;;;10.53;48.99;93608.13;5007454;28;20037;-65
2022/04/02 04:16:48;;;;;;;2.25;1.27;;;;;;;10.51;50.09;93589.38;5007681;28;20041;-65
2022/04/02 04:19:14;;;;;;;1.27;0.98;;;;;;;10.59;48.72;93633.38;5007715;28;20037;-61
2022/04/02 04:21:40;;;;;;;3.25;1.45;;;;;;;10.54;49.70;93656.16;5007783;28;20441;-61
2022/04/02 04:24:07;;;;;;;2.58;1.20;;;;;;;10.55;50.13;93642.31;5011356;28;20034;-63
2022/04/02 04:26:33;;;;;;;1.58;1.02;;;;;;;10.74;48.72;93641.56;5011149;28;20467;-63
2022/04/02 04:28:58;;;;;;;2.47;1.17;;;;;;;10.67;48.96;93636.09;5011457;28;20140;-65
2022/04/02 04:31:25;;;;;;;1.60;1.40;;;;;;;10.57;49.26;93637.84;5011107;28;20445;-61
2022/04/02 04:33:50;;;;;;;3.55;1.30;;;;;;;10.57;49.13;93624.97;5011254;28;20038;-63
2022/04/02 04:36:20;;;;;;;2.88;1.10;;;;;;;10.61;49.99;93662.44;5011724;28;20122;-63
2022/04/02 04:38:47;;;;;;;2.88;1.17;;;;;;;10.64;48.65;93631.22;5010899;28;20025;-65
2022/04/02 04:41:13;;;;;;;1.83;1.20;;;;;;;10.28;50.22;93602.44;5011248;28;20125;-63
2022/04/02 04:43:41;;;;;;;2.15;1.30;;;;;;;10.57;50.20;93661.03;5011320;28;20030;-62
2022/04/02 04:46:08;;;;;;;1.75;1.20;;;;;;;10.76;49.41;93666.28;5009776;28;20508;-64
2022/04/02 04:48:38;;;;;;;3.45;1.55;;;;;;;10.76;50.14;93673.19;5011180;28;20030;-69
2022/04/02 04:51:04;;;;;;;1.70;1.17;;;;;;;10.81;49.06;93679.59;5011082;28;20037;-64
2022/04/02 04:53:34;;;;;;;1.95;1.40;;;;;;;10.71;49.01;93677.91;5010687;28;20113;-63
2022/04/02 04:56:00;;;;;;;4.32;1.80;;;;;;;10.61;50.16;93677.91;5009903;28;20033;-60
2022/04/02 04:58:25;;;;;;;6.85;1.85;;;;;;;10.62;50.58;93653.72;5010786;28;20479;-61
2022/04/02 05:00:53;;;;;;;1.52;1.30;;;;;;;10.78;50.43;93648.91;5005789;28;20034;-64
2022/04/02 05:03:18;;;;;;;3.70;1.65;;;;;;;11.02;51.58;93682.09;4999666;28;20034;-62
2022/04/02 05:05:44;;;;;;;4.30;2.00;;;;;;;10.89;53.76;93676.38;4996048;28;20026;-62
2022/04/02 05:08:10;;;;;;;6.60;2.33;;;;;;;10.80;53.61;93665.06;4999926;28;20480;-62
2022/04/02 05:10:39;;;;;;;3.33;1.75;;;;;;;10.74;54.32;93668.16;5009086;28;20030;-63
2022/04/02 05:13:04;;;;;;;4.30;2.03;;;;;;;10.57;55.60;93654.13;5008754;28;20433;-61
2022/04/02 05:15:30;;;;;;;3.28;1.92;;;;;;;10.78;54.73;93685.00;5008057;28;20091;-60
2022/04/02 05:17:56;;;;;;;3.53;1.98;;;;;;;10.65;53.20;93625.94;4998782;28;20393;-64
2022/04/02 05:20:21;;;;;;;8.27;2.63;;;;;;;10.85;53.39;93644.03;4997389;28;20076;-63
2022/04/02 05:22:47;;;;;;;8.63;2.40;;;;;;;10.36;54.23;93533.06;4997546;28;20018;-64
2022/04/02 05:25:14;;;;;;;5.68;2.65;;;;;;;10.55;53.30;93544.38;4991175;28;20026;-65
2022/04/02 05:27:40;;;;;;;6.90;2.10;;;;;;;11.26;53.48;93642.19;4995860;28;20501;-63
2022/04/02 05:30:07;;;;;;;3.60;2.00;;;;;;;11.46;52.94;93674.03;5000911;28;20456;-63
2022/04/02 05:32:32;;;;;;;7.47;2.38;;;;;;;11.36;52.98;93657.69;5005242;28;20030;-64
2022/04/02 05:34:58;;;;;;;3.35;2.00;;;;;;;11.33;53.19;93660.53;5009958;28;20117;-63
2022/04/02 05:37:24;;;;;;;3.60;1.90;;;;;;;11.72;51.73;93689.81;5009310;28;20026;-61
2022/04/02 05:39:50;;;;;;;3.28;2.13;;;;;;;11.63;51.16;93664.78;5002981;28;20030;-59
2022/04/02 05:42:16;;;;;;;3.10;2.10;;;;;;;11.92;49.84;93675.13;5006810;28;20129;-72
2022/04/02 05:44:41;;;;;;;6.45;2.30;;;;;;;11.98;50.20;93676.34;5003587;28;20627;-61
2022/04/02 05:47:07;;;;;;;5.15;2.42;;;;;;;12.23;50.25;93680.13;5000793;28;20490;-60
2022/04/02 05:49:33;;;;;;;4.43;1.92;;;;;;;12.20;49.91;93682.16;5003329;28;20030;-60
2022/04/02 05:51:59;;;;;;;6.25;2.40;;;;;;;12.40;48.68;93683.75;5005793;28;20040;-61
2022/04/02 05:54:24;;;;;;;5.63;1.90;;;;;;;12.44;46.62;93674.72;5005024;28;20026;-61
2022/04/02 05:56:52;;;;;;;1.98;1.27;;;;;;;12.61;43.14;93664.59;5005117;28;20089;-64
2022/04/02 05:59:18;;;;;;;4.32;1.08;;;;;;;12.57;42.74;93666.66;5005953;28;20022;-62
2022/04/02 06:01:44;;;;;;;3.08;1.45;;;;;;;12.36;43.11;93653.13;4994234;28;20640;-66
2022/04/02 06:04:10;;;;;;;3.13;1.50;;;;;;;12.27;44.71;93667.72;5001096;28;20034;-62
2022/04/02 06:06:36;;;;;;;3.75;1.70;;;;;;;12.07;46.02;93636.75;5001357;28;20194;-62
2022/04/02 06:09:02;;;;;;;3.55;1.80;;;;;;;12.22;45.51;93681.06;5006418;28;20026;-65
2022/04/02 06:11:29;;;;;;;5.28;1.60;;;;;;;12.26;45.30;93666.88;5003666;28;20040;-60
2022/04/02 06:13:54;;;;;;;2.92;1.60;;;;;;;11.99;45.36;93651.34;5004942;28;20029;-63
2022/04/02 06:16:21;;;;;;;4.90;2.00;;;;;;;12.20;45.47;93690.72;4988766;28;20048;-62
2022/04/02 06:18:46;;;;;;;6.13;2.00;;;;;;;12.16;43.96;93691.94;5004029;28;20457;-64
2022/04/02 06:21:11;;;;;;;3.22;1.58;;;;;;;12.16;44.75;93712.63;5005927;28;20050;-61
2022/04/02 06:23:38;;;;;;;3.20;1.15;;;;;;;12.06;45.09;93709.25;4988983;28;20026;-66
2022/04/02 06:26:03;;;;;;;4.50;1.70;;;;;;;12.06;45.04;93712.63;4989324;28;20053;-63
2022/04/02 06:28:29;;;;;;;3.55;1.80;;;;;;;11.69;45.01;93645.34;4988422;28;20466;-60
2022/04/02 06:30:54;;;;;;;2.53;1.63;;;;;;;11.86;45.74;93701.47;4989685;28;20026;-63
2022/04/02 06:33:20;;;;;;;5.97;1.88;;;;;;;11.98;45.41;93734.94;4989311;28;20113;-61
2022/04/02 06:35:45;;;;;;;6.75;1.90;;;;;;;11.85;46.54;93736.00;4989295;28;20410;-68
2022/04/02 06:38:11;;;;;;;4.93;1.92;;;;;;;11.79;45.93;93733.97;4988817;28;20018;-66
2022/04/02 06:40:36;;;;;;;7.80;2.20;;;;;;;11.83;46.80;93742.25;4989380;28;20496;-67
2022/04/02 06:43:02;;;;;;;3.95;2.17;;;;;;;11.69;46.62;93728.81;4989105;28;20509;-64
2022/04/02 06:45:27;;;;;;;2.95;2.03;;;;;;;11.74;44.73;93738.69;4988406;28;20045;-66
2022/04/02 06:47:53;;;;;;;4.55;2.08;;;;;;;11.81;44.07;93744.97;4989115;28;20030;-65
2022/04/02 06:50:18;;;;;;;3.45;1.70;;;;;;;11.81;44.57;93731.25;4988561;28;20062;-63
2022/04/02 06:52:45;;;;;;;6.05;1.67;;;;;;;11.69;44.02;93699.56;4989309;28;20035;-69
2022/04/02 06:55:12;;;;;;;2.30;1.42;;;;;;;12.22;43.54;93735.34;4988945;28;20026;-61
2022/04/02 06:57:48;;;;;;;5.72;1.90;;;;;;;12.38;43.05;93741.69;4988550;28;20026;-62
2022/04/02 07:00:15;;;;;;;4.68;2.60;;;;;;;12.33;43.48;93749.88;4988896;28;20025;-66
2022/04/02 07:02:41;;;;;;;5.85;1.75;;;;;;;11.99;44.25;93718.50;4988400;28;20034;-61
2022/04/02 07:05:07;;;;;;;4.40;1.73;;;;;;;11.78;44.29;93707.31;4988796;28;20077;-61
2022/04/02 07:07:32;;;;;;;14.77;2.55;;;;;;;12.10;44.30;93754.50;4989039;28;20121;-62
2022/04/02 07:09:58;;;;;;;3.35;1.55;;;;;;;12.21;43.37;93743.22;4988974;28;20590;-63
2022/04/02 07:12:24;;;;;;;4.40;2.10;;;;;;;12.44;43.04;93772.97;4988684;28;20060;-63
2022/04/02 07:14:49;;;;;;;2.00;1.30;;;;;;;12.57;41.44;93767.50;4988287;28;20037;-66
2022/04/02 07:17:15;;;;;;;3.83;1.50;;;;;;;11.69;42.63;93666.81;4988745;28;20046;-63
2022/04/02 07:19:41;;;;;;;4.55;2.58;;;;;;;12.38;42.39;93781.31;4988508;28;20148;-64
2022/04/02 07:22:11;;;;;;;3.92;1.63;;;;;;;12.29;42.87;93782.94;4988197;28;20157;-61
2022/04/02 07:24:40;;;;;;;4.97;2.30;;;;;;;12.29;42.98;93780.34;4988621;28;20041;-62
2022/04/02 07:27:09;;;;;;;7.57;2.40;;;;;;;12.15;42.49;93762.69;4988552;28;20049;-64
2022/04/02 07:29:35;;;;;;;2.80;1.63;;;;;;;12.45;42.31;93799.66;4988564;28;20041;-61
2022/04/02 07:32:02;;;;;;;3.67;1.70;;;;;;;12.34;42.23;93767.00;4988591;28;20409;-61
2022/04/02 07:34:28;;;;;;;3.05;1.58;;;;;;;12.25;42.41;93760.91;4988233;28;20031;-62
2022/04/02 07:37:08;;;;;;;7.25;2.80;;;;;;;12.41;42.34;93783.63;4987743;28;20033;-61
2022/04/02 07:39:48;;;;;;;2.80;1.70;;;;;;;12.61;41.66;93784.41;4988458;28;20043;-61
2022/04/02 07:42:26;;;;;;;4.67;2.03;;;;;;;12.71;41.70;93786.97;4988465;28;20027;-67
2022/04/02 07:45:13;;;;;;;4.03;2.17;;;;;;;12.68;42.29;93782.06;5006542;28;20033;-64
2022/04/02 07:47:45;;;;;;;3.15;1.77;;;;;;;12.47;41.63;93752.03;5007504;28;20057;-67
2022/04/02 07:50:15;;;;;;;3.83;1.80;;;;;;;12.69;41.54;93766.41;5005887;28;20092;-62
2022/04/02 07:52:46;;;;;;;2.80;1.60;;;;;;;12.61;40.31;93781.81;5007956;28;20029;-63
2022/04/02 07:55:13;;;;;;;3.65;1.75;;;;;;;12.85;40.37;93772.75;5006256;28;20116;-61
2022/04/02 07:57:47;;;;;;;4.03;1.83;;;;;;;12.97;40.78;93778.56;5008621;28;20520;-63
2022/04/02 08:00:17;;;;;;;7.00;2.97;;;;;;;13.14;40.37;93782.22;5011431;28;20030;-61
2022/04/02 08:02:44;;;;;;;5.05;2.70;;;;;;;13.24;39.82;93775.22;5010870;28;20034;-60
2022/04/02 08:05:12;;;;;;;4.22;2.13;;;;;;;13.06;41.11;93725.97;5011339;28;20044;-62
2022/04/02 08:07:39;;;;;;;4.00;1.83;;;;;;;13.37;40.37;93777.50;5009798;28;20034;-62
2022/04/02 08:10:08;;;;;;;8.27;2.30;;;;;;;13.34;40.08;93772.59;5011138;28;20410;-66
2022/04/02 08:12:35;;;;;;;5.38;1.73;;;;;;;13.30;39.13;93729.78;5011179;28;20029;-62
2022/04/02 08:15:08;;;;;;;4.30;1.90;;;;;;;13.40;39.09;93759.91;5009410;28;20026;-66
2022/04/02 08:17:34;;;;;;;6.50;2.00;;;;;;;13.50;39.26;93746.91;5011039;28;20402;-62
2022/04/02 08:20:00;;;;;;;10.27;3.40;;;;;;;13.40;38.56;93740.97;5011077;28;20030;-61
2022/04/02 08:22:27;;;;;;;3.25;1.73;;;;;;;13.55;37.48;93768.00;5010998;28;20109;-59
2022/04/02 08:24:52;;;;;;;4.97;2.40;;;;;;;13.55;38.43;93767.19;5008908;28;20073;-63
2022/04/02 08:27:45;;;;;;;4.10;1.67;;;;;;;13.67;38.52;93734.13;5010723;28;20141;-61
2022/04/02 08:30:16;;;;;;;5.53;2.20;;;;;;;13.63;38.79;93699.13;5010730;28;20026;-65
2022/04/02 08:33:19;;;;;;;3.13;1.70;;;;;;;14.19;37.60;93741.22;5010812;28;20104;-62
2022/04/02 08:36:05;;;;;;;6.45;2.00;;;;;;;14.26;37.20;93740.47;5010865;28;20092;-62
2022/04/02 08:38:49;;;;;;;2.85;1.40;;;;;;;14.55;35.62;93736.78;5009690;28;20037;-64
2022/04/02 08:41:45;;;;;;;2.10;1.35;;;;;;;14.77;35.48;93745.88;5010572;28;20060;-60
2022/04/02 08:44:29;;;;;;;6.10;1.88;;;;;;;15.12;35.57;93758.88;5010609;28;20049;-61
2022/04/02 08:47:09;;;;;;;6.82;1.88;;;;;;;15.05;35.02;93763.88;5010098;28;20165;-61
2022/04/02 08:49:39;;;;;;;3.70;1.80;;;;;;;15.14;34.58;93781.13;5010135;28;20382;-66
2022/04/02 08:52:14;;;;;;;1.13;0.90;;;;;;;14.95;33.38;93789.94;5010143;28;20304;-61
2022/04/02 08:54:59;;;;;;;1.70;0.70;;;;;;;14.79;34.27;93746.53;5010695;28;20042;-69
2022/04/02 08:57:42;;;;;;;2.33;1.40;;;;;;;15.65;33.84;93777.75;5010286;28;20194;-64
2022/04/02 09:00:10;;;;;;;3.92;1.23;;;;;;;15.77;33.75;93781.72;5010179;28;20101;-65
2022/04/02 09:02:39;;;;;;;4.80;2.10;;;;;;;15.80;33.65;93782.19;5009505;28;20025;-62
2022/04/02 09:05:38;;;;;;;6.15;2.50;;;;;;;15.87;33.93;93745.19;5010125;28;20082;-67
2022/04/02 09:08:34;;;;;;;4.38;1.90;;;;;;;15.86;33.99;93748.78;5008137;28;20121;-64
2022/04/02 09:11:09;;;;;;;3.15;1.55;;;;;;;15.54;33.62;93771.06;5009679;28;20026;-61
2022/04/02 09:13:49;;;;;;;2.50;1.15;;;;;;;17.74;31.22;93746.81;5009322;28;20034;-63
2022/04/02 09:16:35;;;;;;;2.10;1.73;;;;;;;20.87;26.78;93737.16;5009872;28;20180;-62
2022/04/02 09:19:28;;;;;;;3.15;1.40;;;;;;;20.38;25.66;93745.78;5009179;28;20335;-66
2022/04/02 09:22:22;;;;;;;2.75;1.55;;;;;;;20.54;26.81;93749.94;5009478;28;20494;-63
2022/04/02 09:24:54;;;;;;;2.75;1.80;;;;;;;23.87;22.75;93740.44;5009398;28;20030;-65
2022/04/02 09:27:28;;;;;;;4.10;2.35;;;;;;;24.20;21.82;93762.16;5009784;28;20029;-67
2022/04/02 09:30:03;;;;;;;3.83;1.70;;;;;;;22.37;24.86;93765.50;5009699;28;20402;-66
2022/04/02 09:32:59;;;;;;;4.28;2.10;;;;;;;23.50;23.77;93751.50;5009492;28;20485;-63
2022/04/02 09:35:34;;;;;;;2.10;1.52;;;;;;;21.62;24.89;93768.03;5009386;28;20454;-64
2022/04/02 09:38:25;;;;;;;4.00;1.55;;;;;;;23.87;21.65;93757.03;5009011;28;20105;-65
2022/04/02 09:40:51;;;;;;;;;;;;;;;22.72;22.99;93745.09;5009980;28;20022;-65
2022/04/02 09:43:36;;;;;;;4.75;1.80;;;;;;;25.28;20.13;93714.72;5009103;28;19917;-64
2022/04/02 09:46:52;;;;;;;4.85;1.67;;;;;;;22.81;22.35;93755.41;5009233;28;20053;-65
2022/04/02 09:49:27;;;;;;;3.78;1.60;;;;;;;21.74;23.58;93740.25;4986664;28;20042;-65
2022/04/02 09:52:03;;;;;;;2.85;1.17;;;;;;;21.83;23.03;93754.00;4987540;28;20061;-61
2022/04/02 09:54:37;;;;;;;2.53;1.63;;;;;;;21.54;22.99;93726.25;4986821;28;20041;-62
2022/04/02 09:57:16;;;;;;;3.08;1.83;;;;;;;22.23;22.63;93724.44;4986939;28;20037;-63
2022/04/02 09:59:59;;;;;;;2.65;1.75;;;;;;;26.27;19.32;93726.94;4987084;28;20185;-64
2022/04/02 10:02:54;;;;;;;4.10;1.70;;;;;;;27.63;18.36;93721.66;4986645;28;20077;-66
2022/04/02 10:05:27;;;;;;;4.38;1.90;;;;;;;28.66;16.95;93670.53;4986763;28;20031;-63
2022/04/02 10:08:11;;;;;;;4.75;1.40;;;;;;;23.52;20.96;93724.97;4986796;28;20034;-64
2022/04/02 10:10:38;;;;;;;3.70;2.00;;;;;;;27.55;18.02;93686.78;4986987;28;20558;-62
2022/04/02 10:13:05;;;;;;;3.72;2.53;;;;;;;25.49;19.16;93674.69;4986940;28;20090;-61
2022/04/02 10:15:32;;;;;;;6.03;2.33;;;;;;;26.01;18.96;93670.81;4986945;28;20045;-62
2022/04/02 10:18:02;;;;;;;1.90;1.73;;;;;;;24.12;20.66;93677.31;4986704;28;20514;-60
2022/04/02 10:20:29;;;;;;;2.85;1.90;;;;;;;23.90;20.34;93721.59;4985800;28;20027;-62
2022/04/02 10:23:14;;;;;;;3.85;2.03;;;;;;;24.22;20.10;93702.16;4986389;28;20154;-64
2022/04/02 10:25:54;;;;;;;2.30;1.65;;;;;;;26.95;16.66;93702.69;5005415;28;20033;-64
2022/04/02 10:28:28;;;;;;;2.25;1.60;;;;;;;27.66;15.83;93638.28;5008459;28;20030;-62
2022/04/02 10:30:57;;;;;;;3.72;1.73;;;;;;;26.18;17.32;93695.53;5007277;28;20042;-65
2022/04/02 10:33:28;;;;;;;4.13;1.98;;;;;;;27.16;16.72;93703.16;5008337;28;20042;-62
2022/04/02 10:35:56;;;;;;;4.03;2.22;;;;;;;24.59;18.86;93712.84;5007049;28;20018;-64
2022/04/02 10:38:45;;;;;;;3.03;1.80;;;;;;;27.72;16.71;93676.28;5006595;28;20022;-64
2022/04/02 10:41:13;;;;;;;2.78;1.73;;;;;;;29.02;14.52;93660.44;5008530;28;20490;-63
2022/04/02 10:43:52;;;;;;;5.47;2.30;;;;;;;28.23;15.94;93669.28;5008139;28;20041;-61
2022/04/02 10:46:20;;;;;;;2.90;1.30;;;;;;;25.81;16.96;93632.25;5007986;28;20049;-65
2022/04/02 10:49:07;;;;;;;3.63;2.10;;;;;;;27.43;15.89;93705.34;5007759;28;20176;-66
2022/04/02 10:51:38;;;;;;;2.40;1.50;;;;;;;21.72;21.19;93715.22;5007964;28;20056;-66
2022/04/02 10:54:13;;;;;;;5.07;1.63;;;;;;;20.52;23.14;93703.00;5008255;28;20037;-64
2022/04/02 10:56:47;;;;;;;2.05;1.60;;;;;;;22.60;20.85;93690.75;5008289;28;20046;-62
2022/04/02 10:59:18;;;;;;;3.28;2.13;;;;;;;22.53;21.09;93646.91;5008077;28;20030;-61
2022/04/02 11:01:45;;;;;;;3.05;1.77;;;;;;;22.66;20.68;93680.25;5008008;28;20022;-65
2022/04/02 11:04:46;;;;;;;2.63;1.58;;;;;;;21.13;22.32;93667.53;5007954;28;20413;-65
2022/04/02 11:07:25;;;;;;;3.80;1.70;;;;;;;21.48;21.75;93685.91;5007431;28;20436;-61
2022/04/02 11:09:52;;;;;;;3.25;1.67;;;;;;;21.88;20.74;93695.69;5007774;28;20362;-64
2022/04/02 11:12:24;;;;;;;3.33;1.73;;;;;;;18.81;24.56;93699.88;5008030;28;20104;-61
2022/04/02 11:14:50;;;;;;;4.63;2.00;;;;;;;18.56;25.54;93696.66;5007493;28;20461;-65
2022/04/02 11:17:37;;;;;;;5.03;2.50;;;;;;;18.66;26.01;93717.31;5007670;28;20045;-64
2022/04/02 11:20:07;;;;;;;3.13;2.13;;;;;;;17.60;27.82;93737.94;5008134;28;20121;-67
2022/04/02 11:22:57;;;;;;;9.38;2.20;;;;;;;16.50;27.71;93775.00;5007968;28;20025;-63
2022/04/02 11:25:29;;;;;;;11.57;3.35;;;;;;;16.57;38.57;93767.34;5004702;28;20464;-62
2022/04/02 11:27:58;;;;;;;3.85;2.10;;;;;;;15.35;42.28;93756.56;5007787;28;20025;-63
2022/04/02 11:30:29;;;;;;;5.82;2.30;;;;;;;13.24;50.63;93772.63;5008062;28;20401;-66
2022/04/02 11:33:06;;;;;;;3.47;1.90;;;;;;;11.76;60.53;93809.94;5007582;28;20058;-65
2022/04/02 11:35:48;;;;;;;4.18;1.75;;;;;;;11.20;62.80;93826.75;5008140;28;20165;-63
2022/04/02 11:38:26;;;;;;;4.80;2.72;;;;;;;10.30;70.70;93850.47;5007448;28;20030;-63
2022/04/02 11:41:20;;;;;;;5.40;2.50;;;;;;;9.81;75.60;93852.63;5007937;28;20026;-61
2022/04/02 11:43:48;;;;;;;5.43;2.90;;;;;;;8.98;73.55;93779.28;5007917;28;20030;-63
2022/04/02 11:46:17;;;;;;;7.68;2.90;;;;;;;9.31;76.76;93827.31;5007552;28;20045;-64
2022/04/02 11:48:52;;;;;;;5.68;2.90;;;;;;;9.28;77.24;93830.13;5007741;28;20034;-62
2022/04/02 11:51:33;;;;;;;6.05;3.70;;;;;;;9.34;78.35;93824.50;5007673;28;20053;-63